CheckWX is a tool to help pilots better visualize weather data.  It is not intended as a substitute for an official pre-flight weather briefing.

18:04:04 UTC

EGPN METAR
Dundee Airport
Dundee, United Kingdom
Current

14 mins ago

EGPN 181750Z 27020KT 9999 FEW022 16/13 Q0994
Observed
Aug-18 @ 17:50 UTC
Wind
  • 270° at 20 KTS
Visibility
10,000+ meters
Flight Rules
VFR
Cloud Levels
  • Few at 2,200' AGL
Temperature
16°C / 61°F
Dewpoint
13°C / 55°F
Humidity
83%
Altimeter
29.35" Hg
Pressure
993.92 hPa
Previous

44 mins ago

EGPN 181720Z 27021KT 9999 FEW022 16/13 Q0994
Observed
Aug-18 @ 17:20 UTC
Wind
  • 270° at 21 KTS
Visibility
10,000+ meters
Flight Rules
VFR
Cloud Levels
  • Few at 2,200' AGL
Temperature
16°C / 61°F
Dewpoint
13°C / 55°F
Humidity
83%
Altimeter
29.35" Hg
Pressure
993.92 hPa
Previous

1 hour ago

EGPN 181650Z 26022KT 9999 FEW035 17/13 Q0993
Observed
Aug-18 @ 16:50 UTC
Wind
  • 260° at 22 KTS
Visibility
10,000+ meters
Flight Rules
VFR
Cloud Levels
  • Few at 3,500' AGL
Temperature
17°C / 63°F
Dewpoint
13°C / 55°F
Humidity
77%
Altimeter
29.32" Hg
Pressure
992.92 hPa